KHLB/HLB METAR and TAF weather

Enter ICAO airport designator
Station Type Date Time Source
KHLB METAR 2020/09/23 18:35 UTC NOAA

KHLB 231835Z AUTO 30005KT 10SM CLR 23/12 A3009 RMK A01


Station Type Date Time Source
KHLB Decoded METAR 2020/09/23 18:35 UTC NOAA

Station name not available
Sep 23, 2020 - 02:35 PM EDT / 2020.09.23 1835 UTC
Wind: from the WNW (300 degrees) at 6 MPH (5 KT):0
Visibility: 10 mile(s):0
Sky conditions: clear
Temperature: 73 F (23 C)
Dew Point: 53 F (12 C)
Relative Humidity: 49%
Pressure (altimeter): 30.09 in. Hg (1018 hPa)
ob: KHLB 231835Z AUTO 30005KT 10SM CLR 23/12 A3009 RMK A01
cycle: 18

Station Type Date Time Source
KHLB TAF UTC NOAA

Error!

Example: see airport list